sensor_id;sensor_type;location;lat;lon;timestamp;pressure;altitude;pressure_sealevel;temperature;humidity
66664;BME280;59683;51.428;-1.994;2024-03-02T09:43:39;98037.97;;;4.55;100.00
66664;BME280;59683;51.428;-1.994;2024-03-02T09:46:06;98038.81;;;4.73;100.00
66664;BME280;59683;51.428;-1.994;2024-03-02T09:48:33;98046.34;;;4.86;100.00
66664;BME280;59683;51.428;-1.994;2024-03-02T09:51:00;98037.34;;;5.06;100.00
66664;BME280;59683;51.428;-1.994;2024-03-02T09:53:31;98027.38;;;5.28;100.00
66664;BME280;59683;51.428;-1.994;2024-03-02T09:55:57;98028.66;;;5.24;100.00
66664;BME280;59683;51.428;-1.994;2024-03-02T09:58:22;98032.97;;;5.15;100.00
66664;BME280;59683;51.428;-1.994;2024-03-02T10:00:47;98031.56;;;5.03;100.00
66664;BME280;59683;51.428;-1.994;2024-03-02T10:03:14;98036.28;;;4.99;100.00
66664;BME280;59683;51.428;-1.994;2024-03-02T10:05:40;98050.97;;;4.92;100.00
66664;BME280;59683;51.428;-1.994;2024-03-02T10:08:05;98047.91;;;4.79;100.00
66664;BME280;59683;51.428;-1.994;2024-03-02T10:10:41;98050.31;;;4.62;100.00
66664;BME280;59683;51.428;-1.994;2024-03-02T10:13:10;98054.22;;;4.58;100.00
66664;BME280;59683;51.428;-1.994;2024-03-02T10:15:37;98063.59;;;4.61;100.00
66664;BME280;59683;51.428;-1.994;2024-03-02T10:18:04;98064.53;;;4.87;100.00
66664;BME280;59683;51.428;-1.994;2024-03-02T10:20:30;98064.97;;;5.19;100.00
66664;BME280;59683;51.428;-1.994;2024-03-02T10:22:56;98062.88;;;5.40;100.00
66664;BME280;59683;51.428;-1.994;2024-03-02T10:25:34;98062.50;;;5.79;100.00
66664;BME280;59683;51.428;-1.994;2024-03-02T10:28:00;98063.66;;;5.76;100.00
66664;BME280;59683;51.428;-1.994;2024-03-02T10:30:26;98070.94;;;5.65;100.00
66664;BME280;59683;51.428;-1.994;2024-03-02T10:32:55;98065.13;;;5.17;100.00
66664;BME280;59683;51.428;-1.994;2024-03-02T10:35:22;98076.13;;;4.85;100.00
66664;BME280;59683;51.428;-1.994;2024-03-02T10:37:49;98079.53;;;4.68;100.00
66664;BME280;59683;51.428;-1.994;2024-03-02T10:40:14;98076.75;;;4.69;100.00
66664;BME280;59683;51.428;-1.994;2024-03-02T10:42:41;98096.25;;;4.84;100.00
66664;BME280;59683;51.428;-1.994;2024-03-02T10:45:09;98099.38;;;5.16;100.00
66664;BME280;59683;51.428;-1.994;2024-03-02T10:47:37;98093.59;;;5.30;100.00
66664;BME280;59683;51.428;-1.994;2024-03-02T10:50:04;98100.00;;;5.27;100.00
66664;BME280;59683;51.428;-1.994;2024-03-02T10:52:39;98094.13;;;5.16;100.00
66664;BME280;59683;51.428;-1.994;2024-03-02T10:55:06;98095.19;;;5.23;100.00
66664;BME280;59683;51.428;-1.994;2024-03-02T10:57:52;98113.69;;;5.21;100.00
66664;BME280;59683;51.428;-1.994;2024-03-02T11:00:26;98100.72;;;5.20;100.00
66664;BME280;59683;51.428;-1.994;2024-03-02T11:03:06;98111.34;;;5.18;100.00
66664;BME280;59683;51.428;-1.994;2024-03-02T11:05:36;98109.72;;;5.17;100.00
66664;BME280;59683;51.428;-1.994;2024-03-02T11:08:08;98114.78;;;5.19;100.00
66664;BME280;59683;51.428;-1.994;2024-03-02T11:10:38;98119.91;;;5.20;100.00
66664;BME280;59683;51.428;-1.994;2024-03-02T11:13:09;98123.13;;;5.14;100.00
66664;BME280;59683;51.428;-1.994;2024-03-02T11:15:35;98121.22;;;5.06;100.00
66664;BME280;59683;51.428;-1.994;2024-03-02T11:18:03;98120.50;;;5.14;100.00
66664;BME280;59683;51.428;-1.994;2024-03-02T11:20:32;98114.22;;;5.43;100.00
66664;BME280;59683;51.428;-1.994;2024-03-02T11:22:57;98117.97;;;5.58;100.00
66664;BME280;59683;51.428;-1.994;2024-03-02T11:25:24;98117.84;;;6.03;100.00
66664;BME280;59683;51.428;-1.994;2024-03-02T11:33:04;98106.19;;;6.66;100.00
66664;BME280;59683;51.428;-1.994;2024-03-02T11:35:43;98111.53;;;6.99;100.00
66664;BME280;59683;51.428;-1.994;2024-03-02T11:38:11;98096.50;;;6.67;100.00
66664;BME280;59683;51.428;-1.994;2024-03-02T11:40:39;98101.94;;;6.73;100.00
66664;BME280;59683;51.428;-1.994;2024-03-02T11:43:05;98107.09;;;6.99;100.00
66664;BME280;59683;51.428;-1.994;2024-03-02T11:45:31;98103.88;;;7.46;100.00
66664;BME280;59683;51.428;-1.994;2024-03-02T11:47:59;98098.16;;;7.75;100.00
66664;BME280;59683;51.428;-1.994;2024-03-02T11:50:35;98107.50;;;7.94;100.00
66664;BME280;59683;51.428;-1.994;2024-03-02T11:53:03;98104.66;;;8.28;100.00
66664;BME280;59683;51.428;-1.994;2024-03-02T11:55:36;98104.81;;;8.19;100.00
66664;BME280;59683;51.428;-1.994;2024-03-02T11:58:03;98112.06;;;8.25;100.00
66664;BME280;59683;51.428;-1.994;2024-03-02T12:00:29;98113.25;;;7.98;100.00
66664;BME280;59683;51.428;-1.994;2024-03-02T12:05:25;98110.47;;;7.50;100.00
66664;BME280;59683;51.428;-1.994;2024-03-02T12:07:59;98116.41;;;7.52;100.00
66664;BME280;59683;51.428;-1.994;2024-03-02T12:10:25;98111.78;;;7.30;100.00
66664;BME280;59683;51.428;-1.994;2024-03-02T12:12:57;98107.94;;;7.08;100.00
66664;BME280;59683;51.428;-1.994;2024-03-02T12:15:28;98121.44;;;7.13;100.00
66664;BME280;59683;51.428;-1.994;2024-03-02T12:17:55;98113.28;;;7.65;100.00
66664;BME280;59683;51.428;-1.994;2024-03-02T12:20:21;98107.97;;;8.14;100.00
66664;BME280;59683;51.428;-1.994;2024-03-02T12:22:49;98110.88;;;8.91;100.00
66664;BME280;59683;51.428;-1.994;2024-03-02T12:25:15;98107.41;;;9.68;100.00
66664;BME280;59683;51.428;-1.994;2024-03-02T12:27:41;98104.47;;;9.63;100.00
66664;BME280;59683;51.428;-1.994;2024-03-02T12:30:07;98119.69;;;9.07;100.00
66664;BME280;59683;51.428;-1.994;2024-03-02T12:32:36;98117.84;;;8.20;100.00
66664;BME280;59683;51.428;-1.994;2024-03-02T12:35:04;98114.75;;;7.60;100.00
66664;BME280;59683;51.428;-1.994;2024-03-02T12:37:30;98119.09;;;7.02;100.00
66664;BME280;59683;51.428;-1.994;2024-03-02T12:39:55;98120.69;;;6.44;100.00
66664;BME280;59683;51.428;-1.994;2024-03-02T12:42:20;98129.09;;;6.22;100.00
66664;BME280;59683;51.428;-1.994;2024-03-02T12:44:46;98138.03;;;6.03;100.00
66664;BME280;59683;51.428;-1.994;2024-03-02T12:47:11;98149.03;;;6.06;100.00
66664;BME280;59683;51.428;-1.994;2024-03-02T12:49:40;98152.88;;;6.20;100.00
66664;BME280;59683;51.428;-1.994;2024-03-02T12:52:05;98155.38;;;6.22;100.00
66664;BME280;59683;51.428;-1.994;2024-03-02T12:54:31;98154.13;;;6.08;100.00
66664;BME280;59683;51.428;-1.994;2024-03-02T12:56:57;98152.03;;;5.94;100.00
66664;BME280;59683;51.428;-1.994;2024-03-02T12:59:24;98159.94;;;5.76;100.00
66664;BME280;59683;51.428;-1.994;2024-03-02T13:01:55;98167.19;;;5.64;100.00
66664;BME280;59683;51.428;-1.994;2024-03-02T13:04:25;98174.41;;;5.62;100.00
66664;BME280;59683;51.428;-1.994;2024-03-02T13:06:52;98169.16;;;5.44;100.00
66664;BME280;59683;51.428;-1.994;2024-03-02T13:09:17;98179.63;;;5.26;100.00
66664;BME280;59683;51.428;-1.994;2024-03-02T13:11:43;98189.06;;;5.19;100.00
66664;BME280;59683;51.428;-1.994;2024-03-02T13:14:10;98191.44;;;5.13;100.00
66664;BME280;59683;51.428;-1.994;2024-03-02T13:16:39;98201.53;;;5.07;100.00
66664;BME280;59683;51.428;-1.994;2024-03-02T13:19:09;98196.00;;;5.10;100.00
66664;BME280;59683;51.428;-1.994;2024-03-02T13:21:35;98199.78;;;4.98;100.00
66664;BME280;59683;51.428;-1.994;2024-03-02T13:24:01;98199.22;;;5.04;100.00
66664;BME280;59683;51.428;-1.994;2024-03-02T13:26:26;98204.69;;;5.11;100.00
66664;BME280;59683;51.428;-1.994;2024-03-02T13:28:52;98205.19;;;5.24;100.00
66664;BME280;59683;51.428;-1.994;2024-03-02T13:31:18;98206.41;;;5.48;100.00
66664;BME280;59683;51.428;-1.994;2024-03-02T13:33:43;98210.00;;;5.47;100.00
66664;BME280;59683;51.428;-1.994;2024-03-02T13:36:09;98209.50;;;5.61;100.00
66664;BME280;59683;51.428;-1.994;2024-03-02T13:38:35;98196.75;;;5.66;100.00
66664;BME280;59683;51.428;-1.994;2024-03-02T13:41:01;98197.88;;;5.81;100.00
66664;BME280;59683;51.428;-1.994;2024-03-02T13:43:27;98199.53;;;6.00;100.00
66664;BME280;59683;51.428;-1.994;2024-03-02T13:45:52;98204.81;;;6.78;100.00
66664;BME280;59683;51.428;-1.994;2024-03-02T13:48:18;98200.59;;;7.44;100.00
66664;BME280;59683;51.428;-1.994;2024-03-02T13:50:44;98192.44;;;7.64;100.00
66664;BME280;59683;51.428;-1.994;2024-03-02T13:53:11;98192.88;;;7.43;100.00
66664;BME280;59683;51.428;-1.994;2024-03-02T13:55:37;98192.19;;;7.33;100.00
66664;BME280;59683;51.428;-1.994;2024-03-02T13:58:03;98181.13;;;7.13;100.00
66664;BME280;59683;51.428;-1.994;2024-03-02T14:00:29;98195.59;;;6.48;100.00
66664;BME280;59683;51.428;-1.994;2024-03-02T14:02:55;98196.16;;;6.08;100.00
66664;BME280;59683;51.428;-1.994;2024-03-02T14:05:20;98210.66;;;5.94;100.00
66664;BME280;59683;51.428;-1.994;2024-03-02T14:07:46;98219.13;;;6.06;100.00
66664;BME280;59683;51.428;-1.994;2024-03-02T14:10:11;98221.28;;;6.11;100.00
66664;BME280;59683;51.428;-1.994;2024-03-02T14:12:37;98225.78;;;6.00;100.00
66664;BME280;59683;51.428;-1.994;2024-03-02T14:15:03;98215.94;;;5.84;100.00
66664;BME280;59683;51.428;-1.994;2024-03-02T14:17:29;98231.69;;;5.67;100.00
66664;BME280;59683;51.428;-1.994;2024-03-02T14:19:57;98228.63;;;5.53;100.00
66664;BME280;59683;51.428;-1.994;2024-03-02T14:22:24;98234.34;;;5.39;100.00
66664;BME280;59683;51.428;-1.994;2024-03-02T14:24:49;98234.66;;;5.36;100.00
66664;BME280;59683;51.428;-1.994;2024-03-02T14:27:15;98237.16;;;5.55;100.00
66664;BME280;59683;51.428;-1.994;2024-03-02T14:29:43;98235.16;;;5.85;100.00
66664;BME280;59683;51.428;-1.994;2024-03-02T14:32:09;98230.13;;;5.74;100.00
66664;BME280;59683;51.428;-1.994;2024-03-02T14:34:34;98236.41;;;5.63;100.00
66664;BME280;59683;51.428;-1.994;2024-03-02T14:37:00;98245.31;;;5.52;100.00
66664;BME280;59683;51.428;-1.994;2024-03-02T14:39:26;98235.63;;;5.35;100.00
66664;BME280;59683;51.428;-1.994;2024-03-02T14:41:52;98235.13;;;5.22;100.00
66664;BME280;59683;51.428;-1.994;2024-03-02T14:44:18;98239.28;;;5.24;100.00
66664;BME280;59683;51.428;-1.994;2024-03-02T14:46:46;98252.97;;;5.46;100.00
66664;BME280;59683;51.428;-1.994;2024-03-02T14:49:12;98251.19;;;5.82;100.00
66664;BME280;59683;51.428;-1.994;2024-03-02T14:51:37;98262.78;;;6.07;100.00
66664;BME280;59683;51.428;-1.994;2024-03-02T14:54:03;98245.03;;;6.71;100.00
66664;BME280;59683;51.428;-1.994;2024-03-02T14:56:28;98246.00;;;7.46;100.00
66664;BME280;59683;51.428;-1.994;2024-03-02T14:58:53;98245.63;;;7.33;100.00
66664;BME280;59683;51.428;-1.994;2024-03-02T15:01:19;98244.94;;;7.15;100.00
66664;BME280;59683;51.428;-1.994;2024-03-02T15:03:48;98245.09;;;7.72;100.00
66664;BME280;59683;51.428;-1.994;2024-03-02T15:06:14;98242.34;;;8.06;100.00
66664;BME280;59683;51.428;-1.994;2024-03-02T15:08:39;98247.88;;;7.70;100.00
66664;BME280;59683;51.428;-1.994;2024-03-02T15:11:07;98250.97;;;7.58;100.00
66664;BME280;59683;51.428;-1.994;2024-03-02T15:13:32;98253.13;;;7.70;100.00
66664;BME280;59683;51.428;-1.994;2024-03-02T15:15:59;98258.28;;;8.86;100.00
66664;BME280;59683;51.428;-1.994;2024-03-02T15:18:24;98252.94;;;9.11;100.00
66664;BME280;59683;51.428;-1.994;2024-03-02T15:20:49;98256.69;;;9.16;100.00
66664;BME280;59683;51.428;-1.994;2024-03-02T15:23:15;98265.56;;;8.60;100.00
66664;BME280;59683;51.428;-1.994;2024-03-02T15:25:40;98264.22;;;7.90;100.00
66664;BME280;59683;51.428;-1.994;2024-03-02T15:28:06;98276.00;;;7.19;100.00
66664;BME280;59683;51.428;-1.994;2024-03-02T15:30:31;98275.19;;;6.59;100.00
66664;BME280;59683;51.428;-1.994;2024-03-02T15:32:57;98274.75;;;6.27;100.00
66664;BME280;59683;51.428;-1.994;2024-03-02T15:35:22;98280.88;;;6.54;100.00
66664;BME280;59683;51.428;-1.994;2024-03-02T15:37:48;98274.25;;;6.94;100.00
66664;BME280;59683;51.428;-1.994;2024-03-02T15:40:13;98278.28;;;6.88;100.00
66664;BME280;59683;51.428;-1.994;2024-03-02T15:42:38;98277.28;;;6.81;100.00
66664;BME280;59683;51.428;-1.994;2024-03-02T15:45:04;98290.28;;;6.82;100.00
66664;BME280;59683;51.428;-1.994;2024-03-02T15:47:30;98295.00;;;7.05;100.00
66664;BME280;59683;51.428;-1.994;2024-03-02T15:49:55;98295.53;;;7.51;100.00
66664;BME280;59683;51.428;-1.994;2024-03-02T15:52:21;98300.47;;;8.13;100.00
66664;BME280;59683;51.428;-1.994;2024-03-02T15:54:49;98300.63;;;8.19;100.00
66664;BME280;59683;51.428;-1.994;2024-03-02T15:57:15;98308.72;;;8.26;100.00
66664;BME280;59683;51.428;-1.994;2024-03-02T15:59:42;98309.84;;;8.15;100.00
66664;BME280;59683;51.428;-1.994;2024-03-02T16:02:08;98304.31;;;7.68;100.00
66664;BME280;59683;51.428;-1.994;2024-03-02T16:04:33;98316.09;;;7.55;100.00
66664;BME280;59683;51.428;-1.994;2024-03-02T16:06:59;98324.47;;;7.43;100.00
66664;BME280;59683;51.428;-1.994;2024-03-02T16:09:24;98316.50;;;7.26;100.00
66664;BME280;59683;51.428;-1.994;2024-03-02T16:11:49;98330.22;;;7.12;100.00
66664;BME280;59683;51.428;-1.994;2024-03-02T16:14:15;98329.38;;;7.03;100.00
66664;BME280;59683;51.428;-1.994;2024-03-02T16:16:41;98335.50;;;6.86;100.00
66664;BME280;59683;51.428;-1.994;2024-03-02T16:19:07;98339.13;;;6.67;100.00
66664;BME280;59683;51.428;-1.994;2024-03-02T16:21:32;98335.09;;;6.55;100.00
66664;BME280;59683;51.428;-1.994;2024-03-02T16:23:57;98340.91;;;6.41;100.00
66664;BME280;59683;51.428;-1.994;2024-03-02T16:26:24;98341.63;;;6.15;100.00
66664;BME280;59683;51.428;-1.994;2024-03-02T16:28:49;98343.81;;;6.02;100.00
66664;BME280;59683;51.428;-1.994;2024-03-02T16:31:15;98335.00;;;5.93;100.00
66664;BME280;59683;51.428;-1.994;2024-03-02T16:33:44;98340.34;;;5.74;100.00
66664;BME280;59683;51.428;-1.994;2024-03-02T16:36:09;98350.31;;;5.70;100.00
66664;BME280;59683;51.428;-1.994;2024-03-02T16:38:36;98354.50;;;5.63;100.00
66664;BME280;59683;51.428;-1.994;2024-03-02T16:41:02;98354.25;;;5.56;100.00
66664;BME280;59683;51.428;-1.994;2024-03-02T16:43:28;98357.31;;;5.52;100.00
66664;BME280;59683;51.428;-1.994;2024-03-02T16:45:53;98358.72;;;5.46;100.00
66664;BME280;59683;51.428;-1.994;2024-03-02T16:48:18;98359.16;;;5.42;100.00
66664;BME280;59683;51.428;-1.994;2024-03-02T16:50:44;98362.81;;;5.31;100.00
66664;BME280;59683;51.428;-1.994;2024-03-02T16:53:09;98368.75;;;5.23;100.00
66664;BME280;59683;51.428;-1.994;2024-03-02T16:55:35;98373.75;;;5.17;100.00
66664;BME280;59683;51.428;-1.994;2024-03-02T16:58:00;98383.00;;;5.11;100.00
66664;BME280;59683;51.428;-1.994;2024-03-02T17:00:26;98384.25;;;5.07;100.00
66664;BME280;59683;51.428;-1.994;2024-03-02T17:02:51;98378.44;;;5.03;100.00
66664;BME280;59683;51.428;-1.994;2024-03-02T17:05:18;98384.00;;;5.00;100.00
66664;BME280;59683;51.428;-1.994;2024-03-02T17:07:46;98391.16;;;4.98;100.00
66664;BME280;59683;51.428;-1.994;2024-03-02T17:10:12;98385.53;;;4.93;100.00
66664;BME280;59683;51.428;-1.994;2024-03-02T17:12:37;98388.69;;;4.87;100.00
66664;BME280;59683;51.428;-1.994;2024-03-02T17:15:03;98388.31;;;4.82;100.00
66664;BME280;59683;51.428;-1.994;2024-03-02T17:17:30;98395.19;;;4.73;100.00
66664;BME280;59683;51.428;-1.994;2024-03-02T17:19:56;98395.88;;;4.66;100.00
66664;BME280;59683;51.428;-1.994;2024-03-02T17:22:21;98402.78;;;4.57;100.00
66664;BME280;59683;51.428;-1.994;2024-03-02T17:24:48;98405.41;;;4.47;100.00
66664;BME280;59683;51.428;-1.994;2024-03-02T17:27:14;98409.41;;;4.42;100.00
66664;BME280;59683;51.428;-1.994;2024-03-02T17:29:39;98420.97;;;4.39;100.00
66664;BME280;59683;51.428;-1.994;2024-03-02T17:32:05;98424.84;;;4.35;100.00
66664;BME280;59683;51.428;-1.994;2024-03-02T17:34:30;98431.31;;;4.31;100.00
66664;BME280;59683;51.428;-1.994;2024-03-02T17:36:56;98446.47;;;4.27;100.00
66664;BME280;59683;51.428;-1.994;2024-03-02T17:39:21;98442.31;;;4.25;100.00
66664;BME280;59683;51.428;-1.994;2024-03-02T17:41:46;98446.31;;;4.19;100.00
66664;BME280;59683;51.428;-1.994;2024-03-02T17:44:12;98448.91;;;4.09;100.00
66664;BME280;59683;51.428;-1.994;2024-03-02T17:46:37;98453.97;;;3.92;100.00
66664;BME280;59683;51.428;-1.994;2024-03-02T17:49:02;98460.53;;;3.76;100.00
66664;BME280;59683;51.428;-1.994;2024-03-02T17:51:28;98466.66;;;3.65;100.00
66664;BME280;59683;51.428;-1.994;2024-03-02T17:53:53;98469.22;;;3.56;100.00
66664;BME280;59683;51.428;-1.994;2024-03-02T17:56:18;98474.84;;;3.51;100.00
66664;BME280;59683;51.428;-1.994;2024-03-02T17:58:44;98480.91;;;3.52;100.00
66664;BME280;59683;51.428;-1.994;2024-03-02T18:01:09;98489.97;;;3.48;100.00
66664;BME280;59683;51.428;-1.994;2024-03-02T18:03:37;98488.69;;;3.42;100.00
66664;BME280;59683;51.428;-1.994;2024-03-02T18:06:03;98501.91;;;3.40;100.00
66664;BME280;59683;51.428;-1.994;2024-03-02T18:08:29;98499.44;;;3.39;100.00
66664;BME280;59683;51.428;-1.994;2024-03-02T18:10:54;98507.28;;;3.39;100.00
66664;BME280;59683;51.428;-1.994;2024-03-02T18:13:20;98521.16;;;3.39;100.00
66664;BME280;59683;51.428;-1.994;2024-03-02T18:15:46;98522.81;;;3.40;100.00
66664;BME280;59683;51.428;-1.994;2024-03-02T18:18:11;98523.53;;;3.43;100.00
66664;BME280;59683;51.428;-1.994;2024-03-02T18:20:37;98527.09;;;3.41;100.00
66664;BME280;59683;51.428;-1.994;2024-03-02T18:23:04;98530.34;;;3.34;100.00
66664;BME280;59683;51.428;-1.994;2024-03-02T18:25:29;98532.06;;;3.24;100.00
66664;BME280;59683;51.428;-1.994;2024-03-02T18:27:55;98534.03;;;3.10;100.00
66664;BME280;59683;51.428;-1.994;2024-03-02T18:30:21;98536.44;;;3.02;100.00
66664;BME280;59683;51.428;-1.994;2024-03-02T18:32:46;98540.50;;;2.95;100.00
66664;BME280;59683;51.428;-1.994;2024-03-02T18:35:12;98533.88;;;2.91;100.00
66664;BME280;59683;51.428;-1.994;2024-03-02T18:37:37;98539.09;;;2.91;100.00
66664;BME280;59683;51.428;-1.994;2024-03-02T18:40:04;98551.44;;;2.89;100.00
66664;BME280;59683;51.428;-1.994;2024-03-02T18:42:31;98553.44;;;2.97;100.00
66664;BME280;59683;51.428;-1.994;2024-03-02T18:44:56;98548.69;;;3.02;100.00
66664;BME280;59683;51.428;-1.994;2024-03-02T18:47:22;98551.69;;;2.97;100.00
66664;BME280;59683;51.428;-1.994;2024-03-02T18:49:47;98552.53;;;2.86;100.00
66664;BME280;59683;51.428;-1.994;2024-03-02T18:52:13;98549.72;;;2.67;100.00
66664;BME280;59683;51.428;-1.994;2024-03-02T18:54:40;98544.66;;;2.54;100.00
66664;BME280;59683;51.428;-1.994;2024-03-02T18:57:06;98545.88;;;2.39;100.00
66664;BME280;59683;51.428;-1.994;2024-03-02T18:59:31;98553.94;;;2.25;100.00
66664;BME280;59683;51.428;-1.994;2024-03-02T19:01:57;98551.84;;;2.07;100.00
66664;BME280;59683;51.428;-1.994;2024-03-02T19:04:22;98554.53;;;1.94;100.00
66664;BME280;59683;51.428;-1.994;2024-03-02T19:06:47;98556.56;;;1.80;100.00
66664;BME280;59683;51.428;-1.994;2024-03-02T19:09:13;98563.44;;;1.69;100.00
66664;BME280;59683;51.428;-1.994;2024-03-02T19:11:38;98558.06;;;1.60;100.00
66664;BME280;59683;51.428;-1.994;2024-03-02T19:14:04;98563.25;;;1.49;100.00
66664;BME280;59683;51.428;-1.994;2024-03-02T19:16:30;98574.75;;;1.46;100.00
66664;BME280;59683;51.428;-1.994;2024-03-02T19:18:55;98578.88;;;1.37;100.00
66664;BME280;59683;51.428;-1.994;2024-03-02T19:21:20;98570.66;;;1.31;100.00
66664;BME280;59683;51.428;-1.994;2024-03-02T19:23:46;98586.25;;;1.19;100.00
66664;BME280;59683;51.428;-1.994;2024-03-02T19:26:11;98585.28;;;1.09;100.00
66664;BME280;59683;51.428;-1.994;2024-03-02T19:28:43;98579.41;;;0.94;100.00
66664;BME280;59683;51.428;-1.994;2024-03-02T19:31:08;98584.66;;;0.82;100.00
66664;BME280;59683;51.428;-1.994;2024-03-02T19:33:34;98588.97;;;0.70;100.00
66664;BME280;59683;51.428;-1.994;2024-03-02T19:35:59;98588.69;;;0.62;100.00
66664;BME280;59683;51.428;-1.994;2024-03-02T19:38:24;98602.47;;;0.51;100.00
66664;BME280;59683;51.428;-1.994;2024-03-02T19:40:51;98607.38;;;0.43;100.00
66664;BME280;59683;51.428;-1.994;2024-03-02T19:43:16;98609.38;;;0.39;100.00
66664;BME280;59683;51.428;-1.994;2024-03-02T19:45:44;98614.06;;;0.34;100.00
66664;BME280;59683;51.428;-1.994;2024-03-02T19:48:09;98623.03;;;0.30;100.00
66664;BME280;59683;51.428;-1.994;2024-03-02T19:50:39;98627.09;;;0.21;100.00
66664;BME280;59683;51.428;-1.994;2024-03-02T19:53:07;98631.97;;;0.13;100.00
66664;BME280;59683;51.428;-1.994;2024-03-02T19:55:32;98636.97;;;0.04;100.00
66664;BME280;59683;51.428;-1.994;2024-03-02T19:57:58;98637.50;;;-0.04;100.00
66664;BME280;59683;51.428;-1.994;2024-03-02T20:00:23;98642.19;;;-0.09;100.00
66664;BME280;59683;51.428;-1.994;2024-03-02T20:02:49;98640.53;;;-0.10;100.00
66664;BME280;59683;51.428;-1.994;2024-03-02T20:05:14;98650.38;;;-0.15;100.00
66664;BME280;59683;51.428;-1.994;2024-03-02T20:07:40;98655.69;;;-0.17;100.00
66664;BME280;59683;51.428;-1.994;2024-03-02T20:10:07;98659.34;;;-0.07;100.00
66664;BME280;59683;51.428;-1.994;2024-03-02T20:12:35;98658.63;;;0.04;100.00
66664;BME280;59683;51.428;-1.994;2024-03-02T20:15:01;98656.53;;;0.22;100.00
66664;BME280;59683;51.428;-1.994;2024-03-02T20:17:26;98669.25;;;0.27;100.00
66664;BME280;59683;51.428;-1.994;2024-03-02T20:19:52;98673.81;;;0.23;100.00
66664;BME280;59683;51.428;-1.994;2024-03-02T20:22:17;98672.56;;;0.16;100.00
66664;BME280;59683;51.428;-1.994;2024-03-02T20:24:43;98675.19;;;0.16;100.00
66664;BME280;59683;51.428;-1.994;2024-03-02T20:27:08;98672.66;;;0.14;100.00
66664;BME280;59683;51.428;-1.994;2024-03-02T20:29:34;98671.41;;;0.07;100.00
66664;BME280;59683;51.428;-1.994;2024-03-02T20:31:59;98672.56;;;0.03;100.00
66664;BME280;59683;51.428;-1.994;2024-03-02T20:34:25;98676.22;;;0.01;100.00
66664;BME280;59683;51.428;-1.994;2024-03-02T20:36:50;98677.63;;;-0.08;100.00
66664;BME280;59683;51.428;-1.994;2024-03-02T20:39:16;98675.03;;;-0.08;100.00
66664;BME280;59683;51.428;-1.994;2024-03-02T20:41:41;98678.19;;;-0.03;100.00
66664;BME280;59683;51.428;-1.994;2024-03-02T20:44:07;98685.28;;;0.08;100.00
66664;BME280;59683;51.428;-1.994;2024-03-02T20:46:32;98695.69;;;0.08;100.00
66664;BME280;59683;51.428;-1.994;2024-03-02T20:48:57;98689.41;;;-0.03;100.00
66664;BME280;59683;51.428;-1.994;2024-03-02T20:51:23;98696.06;;;0.02;100.00
66664;BME280;59683;51.428;-1.994;2024-03-02T20:53:55;98694.31;;;0.02;100.00
66664;BME280;59683;51.428;-1.994;2024-03-02T20:56:22;98696.19;;;0.00;100.00
66664;BME280;59683;51.428;-1.994;2024-03-02T20:58:48;98700.41;;;-0.12;100.00
66664;BME280;59683;51.428;-1.994;2024-03-02T21:01:13;98694.81;;;-0.18;100.00
66664;BME280;59683;51.428;-1.994;2024-03-02T21:03:39;98696.66;;;-0.20;100.00
66664;BME280;59683;51.428;-1.994;2024-03-02T21:06:06;98702.50;;;-0.17;100.00
66664;BME280;59683;51.428;-1.994;2024-03-02T21:08:31;98701.47;;;-0.14;100.00
66664;BME280;59683;51.428;-1.994;2024-03-02T21:10:57;98700.22;;;-0.21;100.00
66664;BME280;59683;51.428;-1.994;2024-03-02T21:13:22;98713.53;;;-0.13;100.00
66664;BME280;59683;51.428;-1.994;2024-03-02T21:15:50;98722.69;;;-0.08;100.00
66664;BME280;59683;51.428;-1.994;2024-03-02T21:18:15;98720.00;;;-0.06;100.00
66664;BME280;59683;51.428;-1.994;2024-03-02T21:20:41;98712.00;;;-0.03;100.00
66664;BME280;59683;51.428;-1.994;2024-03-02T21:23:06;98726.78;;;0.09;100.00
66664;BME280;59683;51.428;-1.994;2024-03-02T21:25:36;98728.13;;;0.15;100.00
66664;BME280;59683;51.428;-1.994;2024-03-02T21:28:02;98724.91;;;0.24;100.00
66664;BME280;59683;51.428;-1.994;2024-03-02T21:30:27;98731.59;;;0.28;100.00
66664;BME280;59683;51.428;-1.994;2024-03-02T21:32:56;98729.19;;;0.25;100.00
66664;BME280;59683;51.428;-1.994;2024-03-02T21:35:21;98736.78;;;0.28;100.00
66664;BME280;59683;51.428;-1.994;2024-03-02T21:37:46;98728.25;;;0.39;100.00
66664;BME280;59683;51.428;-1.994;2024-03-02T21:40:12;98733.97;;;0.44;100.00
